sensor_id;sensor_type;location;lat;lon;timestamp;P1;durP1;ratioP1;P2;durP2;ratioP2
38379;SDS011;38377;47.418;18.882;2022-12-16T00:01:10;55.80;;;23.73;;
38379;SDS011;38377;47.418;18.882;2022-12-16T00:03:36;60.13;;;25.93;;
38379;SDS011;38377;47.418;18.882;2022-12-16T00:06:03;63.20;;;27.03;;
38379;SDS011;38377;47.418;18.882;2022-12-16T00:08:31;70.17;;;28.67;;
38379;SDS011;38377;47.418;18.882;2022-12-16T00:10:58;58.57;;;24.30;;
38379;SDS011;38377;47.418;18.882;2022-12-16T00:13:25;47.03;;;21.50;;
38379;SDS011;38377;47.418;18.882;2022-12-16T00:15:52;54.10;;;22.07;;
38379;SDS011;38377;47.418;18.882;2022-12-16T00:18:17;48.27;;;23.73;;
38379;SDS011;38377;47.418;18.882;2022-12-16T00:20:48;51.60;;;21.67;;
38379;SDS011;38377;47.418;18.882;2022-12-16T00:23:16;50.80;;;21.03;;
38379;SDS011;38377;47.418;18.882;2022-12-16T00:25:42;46.23;;;21.70;;
38379;SDS011;38377;47.418;18.882;2022-12-16T00:28:09;51.87;;;23.90;;
38379;SDS011;38377;47.418;18.882;2022-12-16T00:30:36;48.60;;;23.80;;
38379;SDS011;38377;47.418;18.882;2022-12-16T00:33:03;48.23;;;20.50;;
38379;SDS011;38377;47.418;18.882;2022-12-16T00:35:29;44.17;;;21.30;;
38379;SDS011;38377;47.418;18.882;2022-12-16T00:37:55;45.80;;;21.90;;
38379;SDS011;38377;47.418;18.882;2022-12-16T00:40:21;46.93;;;21.63;;
38379;SDS011;38377;47.418;18.882;2022-12-16T00:42:47;45.67;;;22.87;;
38379;SDS011;38377;47.418;18.882;2022-12-16T00:45:13;47.77;;;22.47;;
38379;SDS011;38377;47.418;18.882;2022-12-16T00:47:38;46.57;;;23.33;;
38379;SDS011;38377;47.418;18.882;2022-12-16T00:50:04;48.73;;;23.73;;
38379;SDS011;38377;47.418;18.882;2022-12-16T00:52:30;43.53;;;22.40;;
38379;SDS011;38377;47.418;18.882;2022-12-16T00:54:56;43.53;;;19.33;;
38379;SDS011;38377;47.418;18.882;2022-12-16T00:57:22;48.93;;;21.77;;
38379;SDS011;38377;47.418;18.882;2022-12-16T00:59:47;38.03;;;20.70;;
38379;SDS011;38377;47.418;18.882;2022-12-16T01:02:14;38.23;;;18.90;;
38379;SDS011;38377;47.418;18.882;2022-12-16T01:04:39;39.23;;;20.23;;
38379;SDS011;38377;47.418;18.882;2022-12-16T01:07:05;38.77;;;20.83;;
38379;SDS011;38377;47.418;18.882;2022-12-16T01:09:31;36.37;;;20.30;;
38379;SDS011;38377;47.418;18.882;2022-12-16T01:11:57;44.23;;;20.80;;
38379;SDS011;38377;47.418;18.882;2022-12-16T01:14:23;43.17;;;20.40;;
38379;SDS011;38377;47.418;18.882;2022-12-16T01:16:49;37.77;;;19.77;;
38379;SDS011;38377;47.418;18.882;2022-12-16T01:19:14;42.57;;;20.50;;
38379;SDS011;38377;47.418;18.882;2022-12-16T01:21:40;33.90;;;19.63;;
38379;SDS011;38377;47.418;18.882;2022-12-16T01:24:06;34.43;;;18.37;;
38379;SDS011;38377;47.418;18.882;2022-12-16T01:26:32;43.87;;;20.57;;
38379;SDS011;38377;47.418;18.882;2022-12-16T01:28:58;37.57;;;19.43;;
38379;SDS011;38377;47.418;18.882;2022-12-16T01:31:23;42.27;;;19.13;;
38379;SDS011;38377;47.418;18.882;2022-12-16T01:33:49;42.53;;;20.67;;
38379;SDS011;38377;47.418;18.882;2022-12-16T01:36:18;32.40;;;17.40;;
38379;SDS011;38377;47.418;18.882;2022-12-16T01:38:44;40.47;;;19.80;;
38379;SDS011;38377;47.418;18.882;2022-12-16T01:41:10;32.53;;;18.63;;
38379;SDS011;38377;47.418;18.882;2022-12-16T01:43:38;37.37;;;19.00;;
38379;SDS011;38377;47.418;18.882;2022-12-16T01:46:09;32.20;;;17.23;;
38379;SDS011;38377;47.418;18.882;2022-12-16T01:53:39;31.13;;;16.87;;
38379;SDS011;38377;47.418;18.882;2022-12-16T01:56:07;28.90;;;16.23;;
38379;SDS011;38377;47.418;18.882;2022-12-16T01:58:35;30.13;;;17.20;;
38379;SDS011;38377;47.418;18.882;2022-12-16T02:01:04;30.87;;;17.17;;
38379;SDS011;38377;47.418;18.882;2022-12-16T02:03:31;35.97;;;19.27;;
38379;SDS011;38377;47.418;18.882;2022-12-16T02:05:59;35.50;;;20.77;;
38379;SDS011;38377;47.418;18.882;2022-12-16T02:08:26;29.90;;;18.03;;
38379;SDS011;38377;47.418;18.882;2022-12-16T02:11:00;32.03;;;19.17;;
38379;SDS011;38377;47.418;18.882;2022-12-16T02:18:54;29.80;;;18.57;;
38379;SDS011;38377;47.418;18.882;2022-12-16T02:35:23;25.10;;;14.80;;
38379;SDS011;38377;47.418;18.882;2022-12-16T02:43:18;27.57;;;16.53;;
38379;SDS011;38377;47.418;18.882;2022-12-16T02:46:01;31.97;;;18.47;;
38379;SDS011;38377;47.418;18.882;2022-12-16T02:48:28;33.60;;;19.80;;
38379;SDS011;38377;47.418;18.882;2022-12-16T02:50:54;31.97;;;18.67;;
38379;SDS011;38377;47.418;18.882;2022-12-16T02:53:20;38.33;;;21.13;;
38379;SDS011;38377;47.418;18.882;2022-12-16T02:58:44;36.07;;;21.00;;
38379;SDS011;38377;47.418;18.882;2022-12-16T03:04:05;37.83;;;20.63;;
38379;SDS011;38377;47.418;18.882;2022-12-16T03:06:36;35.00;;;20.90;;
38379;SDS011;38377;47.418;18.882;2022-12-16T03:09:05;37.53;;;20.80;;
38379;SDS011;38377;47.418;18.882;2022-12-16T03:11:34;39.20;;;21.55;;
38379;SDS011;38377;47.418;18.882;2022-12-16T03:14:02;40.17;;;20.97;;
38379;SDS011;38377;47.418;18.882;2022-12-16T03:16:31;36.27;;;21.13;;
38379;SDS011;38377;47.418;18.882;2022-12-16T03:19:00;37.83;;;21.20;;
38379;SDS011;38377;47.418;18.882;2022-12-16T03:21:31;34.63;;;20.60;;
38379;SDS011;38377;47.418;18.882;2022-12-16T03:24:02;33.57;;;18.23;;
38379;SDS011;38377;47.418;18.882;2022-12-16T03:29:09;26.03;;;15.40;;
38379;SDS011;38377;47.418;18.882;2022-12-16T03:31:50;29.90;;;17.53;;
38379;SDS011;38377;47.418;18.882;2022-12-16T03:37:14;28.53;;;17.33;;
38379;SDS011;38377;47.418;18.882;2022-12-16T03:39:45;17.27;;;9.93;;
38379;SDS011;38377;47.418;18.882;2022-12-16T03:42:14;21.97;;;14.20;;
38379;SDS011;38377;47.418;18.882;2022-12-16T03:44:41;20.60;;;13.93;;
38379;SDS011;38377;47.418;18.882;2022-12-16T03:47:09;25.50;;;15.57;;
38379;SDS011;38377;47.418;18.882;2022-12-16T03:49:35;22.00;;;14.20;;
38379;SDS011;38377;47.418;18.882;2022-12-16T03:52:00;21.13;;;12.33;;
38379;SDS011;38377;47.418;18.882;2022-12-16T03:54:26;24.27;;;14.63;;
38379;SDS011;38377;47.418;18.882;2022-12-16T03:56:52;23.57;;;15.43;;
38379;SDS011;38377;47.418;18.882;2022-12-16T03:59:18;22.37;;;15.43;;
38379;SDS011;38377;47.418;18.882;2022-12-16T04:01:44;23.23;;;15.13;;
38379;SDS011;38377;47.418;18.882;2022-12-16T04:04:09;28.07;;;16.47;;
38379;SDS011;38377;47.418;18.882;2022-12-16T04:06:36;21.83;;;15.43;;
38379;SDS011;38377;47.418;18.882;2022-12-16T04:09:01;21.67;;;15.13;;
38379;SDS011;38377;47.418;18.882;2022-12-16T04:11:28;25.97;;;16.37;;
38379;SDS011;38377;47.418;18.882;2022-12-16T04:14:12;22.17;;;14.80;;
38379;SDS011;38377;47.418;18.882;2022-12-16T04:16:57;24.70;;;16.70;;
38379;SDS011;38377;47.418;18.882;2022-12-16T04:19:42;25.10;;;16.70;;
38379;SDS011;38377;47.418;18.882;2022-12-16T04:22:30;29.80;;;17.80;;
38379;SDS011;38377;47.418;18.882;2022-12-16T04:25:21;28.50;;;17.07;;
38379;SDS011;38377;47.418;18.882;2022-12-16T04:27:52;33.97;;;18.60;;
38379;SDS011;38377;47.418;18.882;2022-12-16T04:30:18;34.93;;;18.47;;
38379;SDS011;38377;47.418;18.882;2022-12-16T04:32:46;29.77;;;17.47;;
38379;SDS011;38377;47.418;18.882;2022-12-16T04:35:33;37.57;;;21.20;;
38379;SDS011;38377;47.418;18.882;2022-12-16T04:38:17;38.60;;;21.37;;
38379;SDS011;38377;47.418;18.882;2022-12-16T04:41:01;76.97;;;24.47;;
38379;SDS011;38377;47.418;18.882;2022-12-16T04:43:45;117.60;;;29.60;;
38379;SDS011;38377;47.418;18.882;2022-12-16T04:46:29;70.17;;;22.10;;
38379;SDS011;38377;47.418;18.882;2022-12-16T04:49:13;112.83;;;27.13;;
38379;SDS011;38377;47.418;18.882;2022-12-16T04:51:58;44.67;;;19.53;;
38379;SDS011;38377;47.418;18.882;2022-12-16T04:54:42;42.93;;;20.17;;
38379;SDS011;38377;47.418;18.882;2022-12-16T04:57:26;48.20;;;22.03;;
38379;SDS011;38377;47.418;18.882;2022-12-16T05:00:11;41.27;;;21.73;;
38379;SDS011;38377;47.418;18.882;2022-12-16T05:02:56;41.90;;;22.40;;
38379;SDS011;38377;47.418;18.882;2022-12-16T05:05:40;32.10;;;16.17;;
38379;SDS011;38377;47.418;18.882;2022-12-16T05:08:24;34.70;;;19.27;;
38379;SDS011;38377;47.418;18.882;2022-12-16T05:11:08;54.47;;;24.23;;
38379;SDS011;38377;47.418;18.882;2022-12-16T05:13:53;51.37;;;22.70;;
38379;SDS011;38377;47.418;18.882;2022-12-16T05:16:37;49.70;;;22.37;;
38379;SDS011;38377;47.418;18.882;2022-12-16T05:19:21;68.33;;;26.80;;
38379;SDS011;38377;47.418;18.882;2022-12-16T05:22:05;79.43;;;28.23;;
38379;SDS011;38377;47.418;18.882;2022-12-16T05:24:49;56.97;;;28.37;;
38379;SDS011;38377;47.418;18.882;2022-12-16T05:27:33;54.10;;;27.00;;
38379;SDS011;38377;47.418;18.882;2022-12-16T05:30:18;60.70;;;26.93;;
38379;SDS011;38377;47.418;18.882;2022-12-16T05:33:02;67.50;;;29.33;;
38379;SDS011;38377;47.418;18.882;2022-12-16T05:35:46;62.97;;;26.53;;
38379;SDS011;38377;47.418;18.882;2022-12-16T05:38:30;85.33;;;30.83;;
38379;SDS011;38377;47.418;18.882;2022-12-16T05:41:14;70.47;;;28.27;;
38379;SDS011;38377;47.418;18.882;2022-12-16T05:43:58;54.30;;;26.20;;
38379;SDS011;38377;47.418;18.882;2022-12-16T05:46:42;79.17;;;31.07;;
38379;SDS011;38377;47.418;18.882;2022-12-16T05:49:26;78.23;;;30.20;;
38379;SDS011;38377;47.418;18.882;2022-12-16T05:52:10;71.33;;;28.97;;
38379;SDS011;38377;47.418;18.882;2022-12-16T05:54:54;66.97;;;26.67;;
38379;SDS011;38377;47.418;18.882;2022-12-16T05:57:38;80.10;;;28.73;;
38379;SDS011;38377;47.418;18.882;2022-12-16T06:00:22;76.00;;;30.50;;
38379;SDS011;38377;47.418;18.882;2022-12-16T06:03:06;69.40;;;28.73;;
38379;SDS011;38377;47.418;18.882;2022-12-16T06:05:51;54.43;;;23.53;;
38379;SDS011;38377;47.418;18.882;2022-12-16T06:08:35;88.20;;;30.20;;
38379;SDS011;38377;47.418;18.882;2022-12-16T06:11:19;70.57;;;33.60;;
38379;SDS011;38377;47.418;18.882;2022-12-16T06:14:03;70.10;;;32.60;;
38379;SDS011;38377;47.418;18.882;2022-12-16T06:16:47;96.23;;;37.60;;
38379;SDS011;38377;47.418;18.882;2022-12-16T06:19:31;69.17;;;33.53;;
38379;SDS011;38377;47.418;18.882;2022-12-16T06:22:15;86.87;;;38.50;;
38379;SDS011;38377;47.418;18.882;2022-12-16T06:24:59;78.47;;;36.13;;
38379;SDS011;38377;47.418;18.882;2022-12-16T06:27:47;81.47;;;37.70;;
38379;SDS011;38377;47.418;18.882;2022-12-16T06:30:35;89.20;;;41.33;;
38379;SDS011;38377;47.418;18.882;2022-12-16T06:33:19;96.57;;;44.40;;
38379;SDS011;38377;47.418;18.882;2022-12-16T06:36:03;79.00;;;37.10;;
38379;SDS011;38377;47.418;18.882;2022-12-16T06:38:47;82.57;;;40.17;;
38379;SDS011;38377;47.418;18.882;2022-12-16T06:41:31;75.83;;;38.00;;
38379;SDS011;38377;47.418;18.882;2022-12-16T06:44:16;79.72;;;37.88;;
38379;SDS011;38377;47.418;18.882;2022-12-16T06:47:00;86.73;;;39.37;;
38379;SDS011;38377;47.418;18.882;2022-12-16T06:49:44;72.13;;;35.40;;
38379;SDS011;38377;47.418;18.882;2022-12-16T06:52:28;69.33;;;32.63;;
38379;SDS011;38377;47.418;18.882;2022-12-16T06:55:15;83.47;;;38.20;;
38379;SDS011;38377;47.418;18.882;2022-12-16T06:57:59;69.63;;;36.00;;
38379;SDS011;38377;47.418;18.882;2022-12-16T07:00:43;66.50;;;32.55;;
38379;SDS011;38377;47.418;18.882;2022-12-16T07:03:28;72.60;;;33.58;;
38379;SDS011;38377;47.418;18.882;2022-12-16T07:06:12;80.00;;;36.93;;
38379;SDS011;38377;47.418;18.882;2022-12-16T07:08:56;67.07;;;32.63;;
38379;SDS011;38377;47.418;18.882;2022-12-16T07:11:40;73.97;;;36.40;;
38379;SDS011;38377;47.418;18.882;2022-12-16T07:14:24;75.63;;;36.37;;
38379;SDS011;38377;47.418;18.882;2022-12-16T07:17:08;68.35;;;35.00;;
38379;SDS011;38377;47.418;18.882;2022-12-16T07:19:52;69.97;;;34.40;;
38379;SDS011;38377;47.418;18.882;2022-12-16T07:22:36;77.00;;;35.67;;
38379;SDS011;38377;47.418;18.882;2022-12-16T07:25:25;74.13;;;37.17;;
38379;SDS011;38377;47.418;18.882;2022-12-16T07:28:10;62.50;;;34.97;;
38379;SDS011;38377;47.418;18.882;2022-12-16T07:30:54;65.55;;;34.05;;
38379;SDS011;38377;47.418;18.882;2022-12-16T07:33:38;72.43;;;34.03;;
38379;SDS011;38377;47.418;18.882;2022-12-16T07:36:24;59.10;;;30.13;;
38379;SDS011;38377;47.418;18.882;2022-12-16T07:39:09;61.67;;;31.38;;
38379;SDS011;38377;47.418;18.882;2022-12-16T07:41:53;67.37;;;32.50;;
38379;SDS011;38377;47.418;18.882;2022-12-16T07:44:37;69.43;;;34.80;;
38379;SDS011;38377;47.418;18.882;2022-12-16T07:47:21;70.17;;;36.47;;
38379;SDS011;38377;47.418;18.882;2022-12-16T07:50:05;259.40;;;66.10;;
38379;SDS011;38377;47.418;18.882;2022-12-16T07:52:56;68.63;;;36.08;;
38379;SDS011;38377;47.418;18.882;2022-12-16T07:55:41;67.28;;;33.10;;
38379;SDS011;38377;47.418;18.882;2022-12-16T07:58:25;75.83;;;39.80;;
38379;SDS011;38377;47.418;18.882;2022-12-16T08:01:10;76.78;;;39.25;;
38379;SDS011;38377;47.418;18.882;2022-12-16T08:03:54;77.38;;;39.85;;
38379;SDS011;38377;47.418;18.882;2022-12-16T08:06:38;71.70;;;36.70;;
38379;SDS011;38377;47.418;18.882;2022-12-16T08:09:23;70.30;;;36.45;;
38379;SDS011;38377;47.418;18.882;2022-12-16T08:12:08;72.95;;;35.28;;
38379;SDS011;38377;47.418;18.882;2022-12-16T08:14:52;74.40;;;36.22;;
38379;SDS011;38377;47.418;18.882;2022-12-16T08:17:36;78.72;;;37.95;;
38379;SDS011;38377;47.418;18.882;2022-12-16T08:20:31;61.72;;;30.90;;
38379;SDS011;38377;47.418;18.882;2022-12-16T08:23:15;70.90;;;35.42;;
38379;SDS011;38377;47.418;18.882;2022-12-16T08:25:59;63.83;;;35.00;;
38379;SDS011;38377;47.418;18.882;2022-12-16T08:28:43;74.93;;;37.80;;
38379;SDS011;38377;47.418;18.882;2022-12-16T08:31:27;73.22;;;39.95;;
38379;SDS011;38377;47.418;18.882;2022-12-16T08:34:11;76.18;;;38.90;;
38379;SDS011;38377;47.418;18.882;2022-12-16T08:36:55;66.90;;;34.90;;
38379;SDS011;38377;47.418;18.882;2022-12-16T08:39:40;67.45;;;37.67;;
38379;SDS011;38377;47.418;18.882;2022-12-16T08:42:24;70.57;;;39.65;;
38379;SDS011;38377;47.418;18.882;2022-12-16T08:45:08;76.53;;;40.50;;
38379;SDS011;38377;47.418;18.882;2022-12-16T08:47:52;65.05;;;35.95;;
38379;SDS011;38377;47.418;18.882;2022-12-16T08:50:36;79.75;;;39.83;;
38379;SDS011;38377;47.418;18.882;2022-12-16T08:53:21;76.05;;;41.95;;
38379;SDS011;38377;47.418;18.882;2022-12-16T08:56:05;77.47;;;41.78;;
38379;SDS011;38377;47.418;18.882;2022-12-16T08:58:49;77.32;;;43.20;;
38379;SDS011;38377;47.418;18.882;2022-12-16T09:01:34;80.88;;;42.95;;
38379;SDS011;38377;47.418;18.882;2022-12-16T09:04:18;76.75;;;40.90;;
38379;SDS011;38377;47.418;18.882;2022-12-16T09:07:02;82.47;;;40.63;;
38379;SDS011;38377;47.418;18.882;2022-12-16T09:09:46;73.25;;;41.20;;
38379;SDS011;38377;47.418;18.882;2022-12-16T09:12:30;75.68;;;40.85;;
38379;SDS011;38377;47.418;18.882;2022-12-16T09:15:14;74.45;;;39.13;;
38379;SDS011;38377;47.418;18.882;2022-12-16T09:17:58;85.65;;;42.28;;
38379;SDS011;38377;47.418;18.882;2022-12-16T09:20:42;81.60;;;37.80;;
38379;SDS011;38377;47.418;18.882;2022-12-16T09:23:26;79.55;;;40.03;;
38379;SDS011;38377;47.418;18.882;2022-12-16T09:26:11;107.40;;;43.78;;
38379;SDS011;38377;47.418;18.882;2022-12-16T09:28:55;100.28;;;41.63;;
38379;SDS011;38377;47.418;18.882;2022-12-16T09:31:39;105.07;;;41.83;;
38379;SDS011;38377;47.418;18.882;2022-12-16T09:34:23;105.60;;;43.22;;
38379;SDS011;38377;47.418;18.882;2022-12-16T09:37:07;136.32;;;46.83;;
38379;SDS011;38377;47.418;18.882;2022-12-16T09:39:52;128.50;;;44.40;;
38379;SDS011;38377;47.418;18.882;2022-12-16T09:51:28;122.35;;;44.38;;
38379;SDS011;38377;47.418;18.882;2022-12-16T09:54:14;157.60;;;48.33;;
38379;SDS011;38377;47.418;18.882;2022-12-16T09:57:04;124.28;;;44.30;;
38379;SDS011;38377;47.418;18.882;2022-12-16T09:59:58;120.82;;;44.17;;
38379;SDS011;38377;47.418;18.882;2022-12-16T10:02:45;117.10;;;44.13;;
38379;SDS011;38377;47.418;18.882;2022-12-16T10:05:56;110.07;;;42.70;;
38379;SDS011;38377;47.418;18.882;2022-12-16T10:09:02;125.20;;;44.63;;
38379;SDS011;38377;47.418;18.882;2022-12-16T10:12:17;180.95;;;52.45;;
38379;SDS011;38377;47.418;18.882;2022-12-16T10:18:04;180.00;;;53.03;;
38379;SDS011;38377;47.418;18.882;2022-12-16T10:21:20;125.93;;;45.25;;
38379;SDS011;38377;47.418;18.882;2022-12-16T10:27:47;175.50;;;50.28;;
38379;SDS011;38377;47.418;18.882;2022-12-16T10:30:32;133.32;;;44.40;;
38379;SDS011;38377;47.418;18.882;2022-12-16T10:33:19;141.20;;;44.40;;
38379;SDS011;38377;47.418;18.882;2022-12-16T10:36:07;180.88;;;48.88;;
38379;SDS011;38377;47.418;18.882;2022-12-16T10:38:59;136.48;;;41.83;;
38379;SDS011;38377;47.418;18.882;2022-12-16T10:41:50;162.07;;;48.05;;
38379;SDS011;38377;47.418;18.882;2022-12-16T10:44:38;111.45;;;38.30;;
38379;SDS011;38377;47.418;18.882;2022-12-16T10:47:35;139.45;;;42.70;;
38379;SDS011;38377;47.418;18.882;2022-12-16T10:50:19;114.68;;;40.58;;
38379;SDS011;38377;47.418;18.882;2022-12-16T10:56:05;119.03;;;41.05;;
38379;SDS011;38377;47.418;18.882;2022-12-16T10:59:20;138.88;;;43.03;;
38379;SDS011;38377;47.418;18.882;2022-12-16T11:02:18;113.97;;;40.42;;
38379;SDS011;38377;47.418;18.882;2022-12-16T11:05:28;102.35;;;35.42;;
38379;SDS011;38377;47.418;18.882;2022-12-16T11:08:31;103.63;;;34.67;;
38379;SDS011;38377;47.418;18.882;2022-12-16T11:11:21;136.75;;;41.00;;
38379;SDS011;38377;47.418;18.882;2022-12-16T11:14:15;137.63;;;39.22;;
38379;SDS011;38377;47.418;18.882;2022-12-16T11:17:25;104.97;;;37.63;;
38379;SDS011;38377;47.418;18.882;2022-12-16T11:26:14;125.97;;;40.63;;
38379;SDS011;38377;47.418;18.882;2022-12-16T11:31:50;116.13;;;39.80;;
38379;SDS011;38377;47.418;18.882;2022-12-16T11:34:40;114.03;;;39.45;;
38379;SDS011;38377;47.418;18.882;2022-12-16T11:37:26;135.45;;;39.05;;
38379;SDS011;38377;47.418;18.882;2022-12-16T11:40:13;135.18;;;39.10;;
38379;SDS011;38377;47.418;18.882;2022-12-16T11:43:00;139.65;;;40.75;;
38379;SDS011;38377;47.418;18.882;2022-12-16T11:45:47;170.38;;;41.58;;
38379;SDS011;38377;47.418;18.882;2022-12-16T11:48:42;179.20;;;50.25;;
38379;SDS011;38377;47.418;18.882;2022-12-16T11:51:29;160.48;;;44.15;;
38379;SDS011;38377;47.418;18.882;2022-12-16T11:54:18;150.15;;;44.67;;
38379;SDS011;38377;47.418;18.882;2022-12-16T11:57:16;182.18;;;45.95;;
38379;SDS011;38377;47.418;18.882;2022-12-16T12:00:14;217.45;;;47.30;;
38379;SDS011;38377;47.418;18.882;2022-12-16T12:06:10;132.82;;;40.78;;
38379;SDS011;38377;47.418;18.882;2022-12-16T12:12:21;92.00;;;33.08;;
38379;SDS011;38377;47.418;18.882;2022-12-16T12:15:17;72.70;;;28.33;;
38379;SDS011;38377;47.418;18.882;2022-12-16T12:37:38;58.40;;;28.90;;
38379;SDS011;38377;47.418;18.882;2022-12-16T12:46:38;49.63;;;24.27;;
38379;SDS011;38377;47.418;18.882;2022-12-16T12:55:27;40.95;;;20.80;;
38379;SDS011;38377;47.418;18.882;2022-12-16T12:58:21;34.20;;;19.25;;
38379;SDS011;38377;47.418;18.882;2022-12-16T13:01:07;42.72;;;21.13;;
38379;SDS011;38377;47.418;18.882;2022-12-16T13:03:57;36.05;;;19.83;;
38379;SDS011;38377;47.418;18.882;2022-12-16T13:06:49;37.50;;;20.10;;
38379;SDS011;38377;47.418;18.882;2022-12-16T13:09:35;45.20;;;22.55;;
38379;SDS011;38377;47.418;18.882;2022-12-16T13:12:22;46.88;;;25.23;;
38379;SDS011;38377;47.418;18.882;2022-12-16T13:18:20;37.13;;;20.75;;
38379;SDS011;38377;47.418;18.882;2022-12-16T13:27:09;41.55;;;22.13;;
38379;SDS011;38377;47.418;18.882;2022-12-16T13:32:55;39.17;;;21.95;;
38379;SDS011;38377;47.418;18.882;2022-12-16T13:38:47;45.80;;;27.20;;
38379;SDS011;38377;47.418;18.882;2022-12-16T13:47:31;101.43;;;53.47;;
38379;SDS011;38377;47.418;18.882;2022-12-16T13:53:22;45.25;;;28.20;;
38379;SDS011;38377;47.418;18.882;2022-12-16T13:56:13;47.13;;;29.25;;
38379;SDS011;38377;47.418;18.882;2022-12-16T13:59:10;43.35;;;26.33;;
38379;SDS011;38377;47.418;18.882;2022-12-16T14:02:49;37.35;;;22.73;;
38379;SDS011;38377;47.418;18.882;2022-12-16T14:05:35;42.42;;;24.15;;
38379;SDS011;38377;47.418;18.882;2022-12-16T14:08:20;42.63;;;22.95;;
38379;SDS011;38377;47.418;18.882;2022-12-16T14:11:11;45.27;;;24.23;;
38379;SDS011;38377;47.418;18.882;2022-12-16T14:14:25;46.73;;;30.30;;
38379;SDS011;38377;47.418;18.882;2022-12-16T14:17:16;44.22;;;26.65;;
38379;SDS011;38377;47.418;18.882;2022-12-16T14:26:09;41.53;;;25.30;;
38379;SDS011;38377;47.418;18.882;2022-12-16T14:28:56;38.20;;;24.38;;
38379;SDS011;38377;47.418;18.882;2022-12-16T14:31:41;40.85;;;24.83;;
38379;SDS011;38377;47.418;18.882;2022-12-16T14:34:27;37.28;;;23.02;;
38379;SDS011;38377;47.418;18.882;2022-12-16T14:40:20;57.08;;;31.40;;
38379;SDS011;38377;47.418;18.882;2022-12-16T14:43:19;48.90;;;27.30;;
38379;SDS011;38377;47.418;18.882;2022-12-16T14:46:04;43.47;;;25.55;;
38379;SDS011;38377;47.418;18.882;2022-12-16T14:48:49;42.80;;;25.30;;
38379;SDS011;38377;47.418;18.882;2022-12-16T14:51:35;36.70;;;21.17;;
38379;SDS011;38377;47.418;18.882;2022-12-16T14:57:26;30.77;;;21.03;;
38379;SDS011;38377;47.418;18.882;2022-12-16T15:00:15;35.28;;;21.15;;
38379;SDS011;38377;47.418;18.882;2022-12-16T15:06:17;39.28;;;22.95;;
38379;SDS011;38377;47.418;18.882;2022-12-16T15:09:35;34.90;;;22.95;;
38379;SDS011;38377;47.418;18.882;2022-12-16T15:12:27;37.92;;;24.58;;
38379;SDS011;38377;47.418;18.882;2022-12-16T15:15:14;31.20;;;19.90;;
38379;SDS011;38377;47.418;18.882;2022-12-16T15:18:09;33.80;;;20.37;;
38379;SDS011;38377;47.418;18.882;2022-12-16T15:21:00;34.00;;;19.93;;
38379;SDS011;38377;47.418;18.882;2022-12-16T15:23:44;41.67;;;22.87;;
38379;SDS011;38377;47.418;18.882;2022-12-16T15:26:29;41.30;;;23.43;;
38379;SDS011;38377;47.418;18.882;2022-12-16T15:29:49;43.80;;;26.63;;
38379;SDS011;38377;47.418;18.882;2022-12-16T15:32:28;33.38;;;19.23;;
38379;SDS011;38377;47.418;18.882;2022-12-16T15:41:02;50.13;;;26.08;;
38379;SDS011;38377;47.418;18.882;2022-12-16T15:43:48;40.43;;;20.37;;
38379;SDS011;38377;47.418;18.882;2022-12-16T15:46:33;40.77;;;23.23;;
38379;SDS011;38377;47.418;18.882;2022-12-16T15:49:19;42.07;;;22.87;;
38379;SDS011;38377;47.418;18.882;2022-12-16T15:55:30;44.20;;;22.50;;
38379;SDS011;38377;47.418;18.882;2022-12-16T16:01:12;44.70;;;23.23;;
38379;SDS011;38377;47.418;18.882;2022-12-16T16:03:59;38.47;;;21.40;;
38379;SDS011;38377;47.418;18.882;2022-12-16T16:06:47;39.53;;;22.10;;
38379;SDS011;38377;47.418;18.882;2022-12-16T16:09:33;35.73;;;20.10;;
38379;SDS011;38377;47.418;18.882;2022-12-16T16:12:19;39.00;;;21.43;;
38379;SDS011;38377;47.418;18.882;2022-12-16T16:15:05;40.90;;;21.17;;
38379;SDS011;38377;47.418;18.882;2022-12-16T16:17:56;49.83;;;25.63;;
38379;SDS011;38377;47.418;18.882;2022-12-16T16:20:43;39.55;;;22.67;;
38379;SDS011;38377;47.418;18.882;2022-12-16T16:23:28;42.53;;;21.97;;
38379;SDS011;38377;47.418;18.882;2022-12-16T16:26:14;36.37;;;20.10;;
38379;SDS011;38377;47.418;18.882;2022-12-16T16:29:00;35.40;;;20.40;;
38379;SDS011;38377;47.418;18.882;2022-12-16T16:31:45;37.00;;;19.97;;
38379;SDS011;38377;47.418;18.882;2022-12-16T16:34:29;40.80;;;22.47;;
38379;SDS011;38377;47.418;18.882;2022-12-16T16:37:14;39.30;;;26.43;;
38379;SDS011;38377;47.418;18.882;2022-12-16T16:40:04;35.60;;;21.63;;
38379;SDS011;38377;47.418;18.882;2022-12-16T16:42:58;38.10;;;23.40;;
38379;SDS011;38377;47.418;18.882;2022-12-16T16:45:42;39.67;;;23.23;;
38379;SDS011;38377;47.418;18.882;2022-12-16T16:48:26;35.13;;;19.30;;
38379;SDS011;38377;47.418;18.882;2022-12-16T16:51:16;34.90;;;20.77;;
38379;SDS011;38377;47.418;18.882;2022-12-16T16:54:00;33.17;;;18.93;;
38379;SDS011;38377;47.418;18.882;2022-12-16T16:56:44;46.10;;;23.53;;
38379;SDS011;38377;47.418;18.882;2022-12-16T16:59:28;33.63;;;19.43;;
38379;SDS011;38377;47.418;18.882;2022-12-16T17:02:16;38.23;;;22.47;;
38379;SDS011;38377;47.418;18.882;2022-12-16T17:05:05;38.87;;;20.80;;
38379;SDS011;38377;47.418;18.882;2022-12-16T17:07:49;38.60;;;21.07;;
38379;SDS011;38377;47.418;18.882;2022-12-16T17:10:34;35.10;;;19.90;;
38379;SDS011;38377;47.418;18.882;2022-12-16T17:13:18;33.13;;;19.50;;
38379;SDS011;38377;47.418;18.882;2022-12-16T17:16:02;32.13;;;19.73;;
38379;SDS011;38377;47.418;18.882;2022-12-16T17:18:47;36.53;;;22.47;;
38379;SDS011;38377;47.418;18.882;2022-12-16T17:21:31;50.17;;;28.73;;
38379;SDS011;38377;47.418;18.882;2022-12-16T17:24:15;56.23;;;32.93;;
38379;SDS011;38377;47.418;18.882;2022-12-16T17:27:06;56.03;;;31.50;;
38379;SDS011;38377;47.418;18.882;2022-12-16T17:29:58;60.30;;;35.50;;
38379;SDS011;38377;47.418;18.882;2022-12-16T17:32:43;61.70;;;33.07;;
38379;SDS011;38377;47.418;18.882;2022-12-16T17:35:27;45.27;;;23.13;;
38379;SDS011;38377;47.418;18.882;2022-12-16T17:38:11;49.10;;;25.93;;
38379;SDS011;38377;47.418;18.882;2022-12-16T17:40:56;48.20;;;23.90;;
38379;SDS011;38377;47.418;18.882;2022-12-16T17:43:40;44.20;;;25.20;;
38379;SDS011;38377;47.418;18.882;2022-12-16T17:46:24;43.63;;;24.57;;
38379;SDS011;38377;47.418;18.882;2022-12-16T17:49:09;55.87;;;29.50;;
38379;SDS011;38377;47.418;18.882;2022-12-16T17:51:53;46.97;;;24.77;;
38379;SDS011;38377;47.418;18.882;2022-12-16T17:54:38;47.10;;;28.83;;
38379;SDS011;38377;47.418;18.882;2022-12-16T17:57:22;46.90;;;27.00;;
38379;SDS011;38377;47.418;18.882;2022-12-16T18:00:06;52.83;;;30.37;;
38379;SDS011;38377;47.418;18.882;2022-12-16T18:02:51;51.00;;;28.67;;
38379;SDS011;38377;47.418;18.882;2022-12-16T18:05:35;52.53;;;29.07;;
38379;SDS011;38377;47.418;18.882;2022-12-16T18:08:19;56.00;;;29.87;;
38379;SDS011;38377;47.418;18.882;2022-12-16T18:11:03;46.93;;;26.43;;